Terminal Aerodrome Forecast
Issued by NWS

Home | Current Version | Previous Version | Text Only | Print | Product List | Glossary On
Versions: 1 2 3 4 5 6 7 8 9 10 11 12 13 14 15
000
FTUS41 KBTV 201252 AAA
TAFSLK
TAF AMD
KSLK 201252Z 2013/2112 26010G20KT P6SM VCSH BKN020
      TEMPO 2013/2016 2SM -SN BR OVC015
     FM201700 26011G21KT P6SM VCSH OVC030
     FM202200 25007KT P6SM VCSH BKN025
     FM210000 25010G16KT P6SM OVC025
     FM210700 22010G16KT P6SM SCT090
     FM211100 22011G17KT P6SM FEW200 WS020/24040KT=

USA.gov is the U.S. government's official web portal to all federal, state and local government web resources and services.